createdAt,value
2018-03-23T00:00:41.329Z,21.90
2018-03-23T00:03:08.829Z,17.87
2018-03-23T00:05:36.325Z,16.95
2018-03-23T00:08:03.836Z,15.32
2018-03-23T00:10:31.324Z,20.83
2018-03-23T00:12:59.052Z,22.25
2018-03-23T00:15:26.544Z,19.90
2018-03-23T00:17:54.827Z,20.73
2018-03-23T00:20:23.105Z,18.67
2018-03-23T00:22:51.370Z,20.62
2018-03-23T00:25:19.658Z,22.60
2018-03-23T00:27:47.180Z,19.73
2018-03-23T00:30:14.698Z,22.30
2018-03-23T00:32:42.196Z,22.15
2018-03-23T00:35:09.713Z,24.12
2018-03-23T00:37:37.220Z,27.10
2018-03-23T00:40:04.715Z,24.20
2018-03-23T00:42:32.244Z,21.80
2018-03-23T00:44:59.735Z,25.70
2018-03-23T00:47:27.260Z,28.00
2018-03-23T00:49:54.756Z,26.90
2018-03-23T00:52:22.257Z,28.98
2018-03-23T00:54:49.774Z,28.23
2018-03-23T00:57:17.284Z,24.37
2018-03-23T00:59:44.815Z,24.35
2018-03-23T01:02:12.318Z,27.33
2018-03-23T01:04:39.830Z,25.20
2018-03-23T01:07:07.352Z,26.00
2018-03-23T01:09:35.624Z,25.98
2018-03-23T01:12:03.919Z,23.67
2018-03-23T01:14:32.201Z,20.52
2018-03-23T01:17:00.697Z,22.65
2018-03-23T01:19:28.197Z,24.27
2018-03-23T01:21:55.698Z,24.25
2018-03-23T01:24:23.239Z,19.40
2018-03-23T01:26:51.519Z,23.08
2018-03-23T01:29:19.037Z,30.02
2018-03-23T01:31:46.548Z,28.92
2018-03-23T01:34:14.851Z,26.75
2018-03-23T01:36:42.368Z,26.45
2018-03-23T01:39:09.890Z,24.42
2018-03-23T01:41:37.400Z,26.58
2018-03-23T01:44:05.700Z,26.85
2018-03-23T01:46:33.217Z,24.73
2018-03-23T01:49:00.729Z,22.05
2018-03-23T01:51:28.274Z,31.25
2018-03-23T01:53:56.531Z,25.42
2018-03-23T01:56:24.816Z,27.10
2018-03-23T01:58:53.104Z,27.50
2018-03-23T02:01:20.620Z,24.02
2018-03-23T02:03:48.178Z,26.17
2018-03-23T02:06:15.679Z,30.17
2018-03-23T02:08:43.988Z,22.23
2018-03-23T02:11:11.510Z,25.90
2018-03-23T02:13:39.773Z,24.70
2018-03-23T02:16:07.301Z,20.58
2018-03-23T02:18:34.803Z,24.17
2018-03-23T02:21:03.089Z,25.02
2018-03-23T02:23:31.352Z,28.58
2018-03-23T02:25:58.852Z,25.98
2018-03-23T02:28:26.388Z,28.87
2018-03-23T02:30:54.679Z,23.08
2018-03-23T02:33:22.194Z,24.83
2018-03-23T02:35:49.691Z,20.80
2018-03-23T02:38:17.208Z,23.98
2018-03-23T02:40:44.727Z,27.87
2018-03-23T02:43:12.229Z,24.83
2018-03-23T02:45:39.747Z,25.80
2018-03-23T02:48:07.231Z,25.75
2018-03-23T02:50:34.744Z,26.00
2018-03-23T02:53:02.249Z,28.42
2018-03-23T02:55:29.757Z,23.98
2018-03-23T02:57:57.301Z,31.50
2018-03-23T03:00:24.800Z,28.20
2018-03-23T03:02:52.312Z,24.15
2018-03-23T03:05:19.818Z,24.55
2018-03-23T03:07:47.328Z,26.65
2018-03-23T03:10:14.828Z,28.10
2018-03-23T03:12:42.337Z,29.35
2018-03-23T03:15:09.854Z,28.60
2018-03-23T03:17:37.350Z,29.17
2018-03-23T03:20:04.867Z,33.00
2018-03-23T03:22:32.372Z,25.37
2018-03-23T03:24:59.902Z,28.33
2018-03-23T03:27:27.422Z,35.05
2018-03-23T03:29:54.928Z,24.05
2018-03-23T03:32:22.459Z,24.63
2018-03-23T03:34:49.969Z,25.60
2018-03-23T03:37:17.524Z,29.95
2018-03-23T03:39:45.056Z,29.12
2018-03-23T03:42:12.592Z,26.62
2018-03-23T03:44:40.867Z,27.00
2018-03-23T03:47:08.386Z,29.37
2018-03-23T03:49:35.916Z,24.55
2018-03-23T03:52:03.417Z,23.92
2018-03-23T03:54:30.937Z,21.75
2018-03-23T03:56:59.217Z,25.30
2018-03-23T03:59:26.749Z,27.98
2018-03-23T04:01:54.248Z,29.17
2018-03-23T04:04:21.756Z,23.55
2018-03-23T04:06:50.043Z,28.02
2018-03-23T04:09:18.317Z,29.40
2018-03-23T04:11:46.599Z,27.62
2018-03-23T04:14:14.897Z,25.65
2018-03-23T04:16:42.415Z,27.55
2018-03-23T04:19:09.906Z,35.53
2018-03-23T04:21:37.401Z,32.03
2018-03-23T04:24:04.918Z,31.27
2018-03-23T04:26:32.411Z,24.92
2018-03-23T04:28:59.920Z,25.85
2018-03-23T04:31:28.178Z,24.67
2018-03-23T04:33:55.692Z,29.00
2018-03-23T04:36:23.192Z,26.95
2018-03-23T04:38:50.716Z,26.15
2018-03-23T04:41:18.209Z,31.92
2018-03-23T04:43:45.703Z,26.73
2018-03-23T04:46:14.000Z,28.75
2018-03-23T04:48:41.503Z,25.77
2018-03-23T04:51:09.014Z,24.15
2018-03-23T04:53:36.506Z,26.83
2018-03-23T04:56:04.021Z,29.15
2018-03-23T04:58:31.526Z,31.80
2018-03-23T05:00:59.049Z,28.00
2018-03-23T05:03:26.540Z,27.05
2018-03-23T05:05:54.026Z,28.17
2018-03-23T05:08:21.543Z,29.92
2018-03-23T05:10:49.047Z,29.00
2018-03-23T05:13:16.598Z,25.48
2018-03-23T05:15:44.869Z,27.52
2018-03-23T05:18:12.382Z,29.50
2018-03-23T05:20:39.875Z,28.45
2018-03-23T05:23:07.384Z,28.35
2018-03-23T05:25:35.643Z,31.75
2018-03-23T05:28:03.915Z,30.37
2018-03-23T05:30:31.426Z,28.30
2018-03-23T05:32:58.926Z,31.10
2018-03-23T05:35:26.443Z,25.77
2018-03-23T05:37:53.926Z,31.80
2018-03-23T05:40:21.431Z,30.30
2018-03-23T05:42:48.935Z,24.02
2018-03-23T05:45:16.441Z,27.70
2018-03-23T05:47:44.696Z,22.55
2018-03-23T05:50:12.179Z,23.40
2018-03-23T05:52:40.454Z,26.75
2018-03-23T05:55:08.724Z,30.50
2018-03-23T05:57:36.230Z,26.27
2018-03-23T06:00:03.725Z,28.02
2018-03-23T06:02:31.240Z,22.60
2018-03-23T06:04:58.731Z,26.42
2018-03-23T06:07:26.251Z,22.52
2018-03-23T06:09:53.744Z,27.25
2018-03-23T06:12:22.005Z,23.48
2018-03-23T06:14:49.515Z,22.48
2018-03-23T06:17:17.035Z,23.38
2018-03-23T06:19:44.545Z,21.00
2018-03-23T06:22:12.801Z,23.80
2018-03-23T06:24:40.344Z,21.12
2018-03-23T06:27:07.845Z,20.85
2018-03-23T06:29:36.131Z,19.25
2018-03-23T06:32:04.459Z,19.77
2018-03-23T06:34:31.952Z,20.15
2018-03-23T06:36:59.463Z,22.25
2018-03-23T06:39:26.976Z,23.20
2018-03-23T06:41:55.251Z,22.87
2018-03-23T06:44:22.737Z,25.15
2018-03-23T06:46:50.250Z,22.70
2018-03-23T06:49:17.740Z,22.25
2018-03-23T06:51:45.991Z,20.55
2018-03-23T06:54:13.539Z,17.95
2018-03-23T06:56:41.023Z,21.50
2018-03-23T06:59:08.528Z,20.98
2018-03-23T07:01:36.025Z,21.65
2018-03-23T07:04:03.544Z,27.92
2018-03-23T07:06:31.802Z,17.98
2018-03-23T07:08:59.315Z,17.58
2018-03-23T07:11:26.825Z,20.75
2018-03-23T07:13:54.328Z,21.42
2018-03-23T07:16:22.349Z,20.90
2018-03-23T07:18:50.635Z,26.00
2018-03-23T07:21:18.155Z,17.95
2018-03-23T07:23:45.744Z,18.67
2018-03-23T07:26:13.260Z,16.90
2018-03-23T07:28:40.792Z,18.55
2018-03-23T07:31:08.278Z,14.85
2018-03-23T07:33:35.809Z,13.00
2018-03-23T07:36:03.664Z,14.32
2018-03-23T07:38:31.244Z,15.07
2018-03-23T07:40:58.854Z,20.35
2018-03-23T07:43:27.137Z,13.70
2018-03-23T07:45:55.392Z,13.80
2018-03-23T07:48:22.894Z,15.30
2018-03-23T07:50:50.404Z,15.20
2018-03-23T07:53:17.888Z,16.48
2018-03-23T07:55:46.165Z,13.57
2018-03-23T07:58:13.678Z,12.75
2018-03-23T08:00:41.194Z,11.82
2018-03-23T08:03:08.725Z,15.18
2018-03-23T08:05:36.244Z,16.92
2018-03-23T08:08:04.514Z,13.10
2018-03-23T08:10:32.037Z,10.73
2018-03-23T08:13:00.322Z,15.73
2018-03-23T08:15:28.614Z,17.23
2018-03-23T08:17:56.901Z,14.70
2018-03-23T08:20:24.391Z,14.05
2018-03-23T08:22:51.924Z,15.52
2018-03-23T08:25:19.412Z,14.23
2018-03-23T08:27:46.937Z,13.05
2018-03-23T08:30:14.431Z,8.93
2018-03-23T08:32:41.927Z,11.93
2018-03-23T08:35:09.443Z,10.75
2018-03-23T08:37:36.933Z,13.48
2018-03-23T08:40:04.456Z,11.50
2018-03-23T08:42:31.953Z,9.90
2018-03-23T08:44:59.512Z,10.88
2018-03-23T08:47:26.989Z,15.20
2018-03-23T08:49:55.257Z,13.45
2018-03-23T08:52:22.747Z,11.40
2018-03-23T08:54:50.247Z,12.85
2018-03-23T08:57:17.751Z,11.35
2018-03-23T08:59:46.010Z,11.52
2018-03-23T09:02:13.518Z,11.10
2018-03-23T09:04:41.003Z,14.73
2018-03-23T09:07:08.527Z,10.80
2018-03-23T09:09:36.074Z,14.05
2018-03-23T09:12:03.652Z,11.00
2018-03-23T09:14:31.160Z,13.50
2018-03-23T09:16:58.648Z,15.65
2018-03-23T09:19:26.932Z,11.68
2018-03-23T09:21:54.421Z,13.05
2018-03-23T09:24:21.937Z,18.60
2018-03-23T09:26:50.220Z,11.02
2018-03-23T09:29:18.500Z,13.30
2018-03-23T09:31:45.995Z,12.40
2018-03-23T09:34:13.505Z,8.25
2018-03-23T09:36:41.773Z,11.20
2018-03-23T09:39:10.049Z,13.60
2018-03-23T09:41:38.339Z,12.73
2018-03-23T09:44:06.622Z,10.60
2018-03-23T09:46:34.175Z,11.30
2018-03-23T09:49:02.448Z,10.07
2018-03-23T09:51:29.965Z,12.90
2018-03-23T09:53:57.481Z,9.90
2018-03-23T09:56:25.761Z,12.20
2018-03-23T09:58:54.007Z,10.80
2018-03-23T10:01:21.503Z,13.27
2018-03-23T10:03:49.102Z,8.77
2018-03-23T10:06:16.530Z,9.25
2018-03-23T10:08:44.274Z,9.73
2018-03-23T10:11:12.547Z,10.73
2018-03-23T10:13:40.831Z,9.75
2018-03-23T10:16:09.084Z,12.55
2018-03-23T10:18:36.594Z,9.77
2018-03-23T10:21:04.073Z,9.88
2018-03-23T10:23:31.579Z,8.52
2018-03-23T10:25:59.853Z,8.52
2018-03-23T10:28:28.104Z,9.15
2018-03-23T10:30:55.658Z,12.73
2018-03-23T10:33:23.160Z,8.43
2018-03-23T10:35:51.448Z,9.65
2018-03-23T10:38:18.936Z,7.87
2018-03-23T10:40:46.456Z,8.50
2018-03-23T10:43:13.968Z,9.00
2018-03-23T10:45:41.480Z,8.02
2018-03-23T10:48:09.763Z,8.70
2018-03-23T10:50:37.927Z,7.93
2018-03-23T10:53:06.204Z,8.65
2018-03-23T10:55:34.458Z,8.68
2018-03-23T10:58:06.875Z,7.30
2018-03-23T11:00:40.046Z,7.15
2018-03-23T11:03:08.326Z,7.03
2018-03-23T11:05:36.592Z,7.55
2018-03-23T11:08:04.871Z,5.45
2018-03-23T11:10:32.383Z,7.40
2018-03-23T11:12:59.878Z,6.55
2018-03-23T11:15:27.401Z,7.15
2018-03-23T11:17:54.924Z,5.65
2018-03-23T11:20:23.196Z,5.93
2018-03-23T11:22:50.702Z,7.45
2018-03-23T11:25:18.212Z,7.18
2018-03-23T11:27:46.475Z,7.75
2018-03-23T11:30:14.759Z,7.20
2018-03-23T11:32:42.260Z,6.30
2018-03-23T11:35:09.753Z,7.45
2018-03-23T11:37:37.262Z,6.35
2018-03-23T11:40:04.756Z,5.20
2018-03-23T11:42:32.260Z,4.20
2018-03-23T11:45:00.515Z,4.10
2018-03-23T11:47:28.024Z,4.47
2018-03-23T11:49:55.538Z,3.67
2018-03-23T11:52:23.856Z,2.45
2018-03-23T11:54:51.368Z,3.80
2018-03-23T11:57:18.865Z,5.37
2018-03-23T11:59:47.315Z,2.90
2018-03-23T12:02:14.816Z,4.20
2018-03-23T12:04:42.323Z,4.40
2018-03-23T12:07:09.804Z,3.25
2018-03-23T12:09:37.295Z,7.60
2018-03-23T12:12:04.827Z,6.45
2018-03-23T12:14:33.184Z,7.72
2018-03-23T12:17:00.749Z,5.53
2018-03-23T12:19:28.243Z,6.50
2018-03-23T12:21:55.755Z,5.25
2018-03-23T12:24:23.252Z,10.10
2018-03-23T12:26:51.116Z,6.93
2018-03-23T12:29:18.627Z,6.75
2018-03-23T12:31:46.176Z,5.32
2018-03-23T12:34:13.682Z,7.65
2018-03-23T12:36:41.184Z,6.32
2018-03-23T12:39:08.692Z,7.80
2018-03-23T12:41:36.284Z,10.38
2018-03-23T12:44:03.793Z,7.25
2018-03-23T12:46:31.301Z,7.65
2018-03-23T12:48:59.584Z,10.43
2018-03-23T12:51:27.865Z,8.02
2018-03-23T12:53:55.374Z,6.80
2018-03-23T12:56:22.910Z,7.60
2018-03-23T12:58:50.440Z,6.95
2018-03-23T13:01:17.955Z,7.25
2018-03-23T13:03:45.530Z,8.32
2018-03-23T13:06:12.992Z,8.20
2018-03-23T13:08:41.373Z,7.53
2018-03-23T13:11:08.882Z,8.77
2018-03-23T13:13:36.419Z,7.50
2018-03-23T13:16:04.672Z,7.28
2018-03-23T13:18:32.176Z,7.70
2018-03-23T13:20:59.697Z,6.62
2018-03-23T13:23:27.961Z,5.82
2018-03-23T13:25:55.477Z,8.48
2018-03-23T13:28:22.972Z,7.72
2018-03-23T13:30:50.494Z,7.32
2018-03-23T13:33:17.987Z,8.90
2018-03-23T13:35:45.473Z,7.95
2018-03-23T13:38:13.752Z,6.25
2018-03-23T13:40:42.016Z,8.50
2018-03-23T13:43:09.551Z,10.23
2018-03-23T13:45:37.045Z,8.40
2018-03-23T13:48:05.328Z,5.97
2018-03-23T13:50:33.590Z,8.77
2018-03-23T13:53:01.852Z,11.43
2018-03-23T13:55:29.380Z,9.80
2018-03-23T13:57:57.093Z,10.73
2018-03-23T14:00:31.087Z,16.77
2018-03-23T14:02:58.605Z,10.35
2018-03-23T14:05:26.135Z,9.43
2018-03-23T14:07:54.394Z,8.30
2018-03-23T14:10:21.915Z,11.50
2018-03-23T14:12:49.410Z,10.07
2018-03-23T14:15:16.914Z,10.15
2018-03-23T14:17:44.431Z,7.25
2018-03-23T14:20:11.929Z,10.50
2018-03-23T14:22:39.449Z,11.27
2018-03-23T14:25:06.937Z,11.55
2018-03-23T14:27:35.823Z,21.05
2018-03-23T14:30:04.076Z,13.57
2018-03-23T14:32:31.571Z,11.15
2018-03-23T14:34:59.092Z,12.93
2018-03-23T14:37:26.588Z,10.63
2018-03-23T14:39:54.103Z,10.93
2018-03-23T14:42:21.606Z,11.95
2018-03-23T14:44:49.120Z,15.13
2018-03-23T14:47:16.623Z,11.95
2018-03-23T14:49:44.885Z,11.90
2018-03-23T14:52:13.175Z,10.88
2018-03-23T14:54:41.432Z,11.18
2018-03-23T14:57:08.950Z,12.10
2018-03-23T14:59:36.533Z,10.88
2018-03-23T15:02:04.064Z,10.32
2018-03-23T15:04:31.563Z,10.75
2018-03-23T15:06:59.073Z,9.52
2018-03-23T15:09:26.571Z,11.15
2018-03-23T15:11:54.061Z,11.32
2018-03-23T15:14:22.348Z,14.90
2018-03-23T15:16:49.955Z,11.57
2018-03-23T15:19:17.477Z,14.55
2018-03-23T15:21:44.984Z,12.05
2018-03-23T15:24:12.500Z,8.77
2018-03-23T15:26:40.000Z,11.38
2018-03-23T15:29:07.506Z,9.90
2018-03-23T15:31:35.784Z,9.90
2018-03-23T15:34:04.075Z,10.52
2018-03-23T15:36:31.592Z,11.63
2018-03-23T15:38:59.080Z,10.27
2018-03-23T15:41:26.579Z,10.52
2018-03-23T15:43:54.226Z,10.95
2018-03-23T15:46:21.711Z,10.18
2018-03-23T15:48:49.318Z,14.25
2018-03-23T15:51:17.581Z,12.30
2018-03-23T15:53:45.846Z,12.70
2018-03-23T15:56:13.356Z,10.60
2018-03-23T15:58:40.877Z,10.65
2018-03-23T16:01:08.405Z,10.15
2018-03-23T16:03:35.902Z,14.85
2018-03-23T16:06:04.158Z,11.12
2018-03-23T16:08:31.683Z,13.23
2018-03-23T16:10:59.167Z,13.38
2018-03-23T16:13:26.694Z,15.65
2018-03-23T16:15:54.240Z,13.32
2018-03-23T16:18:21.748Z,12.73
2018-03-23T16:20:49.250Z,16.55
2018-03-23T16:23:16.753Z,12.98
2018-03-23T16:25:44.272Z,15.63
2018-03-23T16:28:11.759Z,17.73
2018-03-23T16:30:39.282Z,18.40
2018-03-23T16:33:07.597Z,14.48
2018-03-23T16:35:35.103Z,15.95
2018-03-23T16:38:03.395Z,17.02
2018-03-23T16:40:31.669Z,17.02
2018-03-23T16:42:59.994Z,16.75
2018-03-23T16:45:27.469Z,19.50
2018-03-23T16:47:54.996Z,18.40
2018-03-23T16:50:22.522Z,21.12
2018-03-23T16:52:50.800Z,20.27
2018-03-23T16:55:19.095Z,24.50
2018-03-23T16:57:47.104Z,19.37
2018-03-23T17:00:14.623Z,21.52
2018-03-23T17:02:42.124Z,21.92
2018-03-23T17:05:09.630Z,18.58
2018-03-23T17:07:37.917Z,22.45
2018-03-23T17:10:05.417Z,21.02
2018-03-23T17:12:32.957Z,19.58
2018-03-23T17:15:00.433Z,21.90
2018-03-23T17:17:27.940Z,23.83
2018-03-23T17:19:56.220Z,23.73
2018-03-23T17:22:24.501Z,20.12
2018-03-23T17:24:52.939Z,22.37
2018-03-23T17:27:20.431Z,22.62
2018-03-23T17:29:47.923Z,26.00
2018-03-23T17:32:15.452Z,22.90
2018-03-23T17:34:43.729Z,25.35
2018-03-23T17:37:12.020Z,20.50
2018-03-23T17:39:40.281Z,25.15
2018-03-23T17:42:07.831Z,23.30
2018-03-23T17:44:35.330Z,28.45
2018-03-23T17:47:02.820Z,25.00
2018-03-23T17:49:30.334Z,22.70
2018-03-23T17:51:57.866Z,25.65
2018-03-23T17:54:25.382Z,22.30
2018-03-23T17:56:53.596Z,26.42
2018-03-23T17:59:21.157Z,22.95
2018-03-23T18:01:48.647Z,22.92
2018-03-23T18:04:16.928Z,25.70
2018-03-23T18:06:45.174Z,23.15
2018-03-23T18:09:12.671Z,21.80
2018-03-23T18:11:40.193Z,25.55
2018-03-23T18:14:07.704Z,23.73
2018-03-23T18:16:35.224Z,30.85
2018-03-23T18:19:02.725Z,30.10
2018-03-23T18:21:30.258Z,29.75
2018-03-23T18:23:58.518Z,32.40
2018-03-23T18:26:26.037Z,25.00
2018-03-23T18:28:53.711Z,26.77
2018-03-23T18:31:21.976Z,24.45
2018-03-23T18:33:49.494Z,28.20
2018-03-23T18:36:17.764Z,25.00
2018-03-23T18:38:46.049Z,25.92
2018-03-23T18:41:14.312Z,26.75
2018-03-23T18:43:41.835Z,30.02
2018-03-23T18:46:09.330Z,31.15
2018-03-23T18:48:36.856Z,26.95
2018-03-23T18:51:04.356Z,28.95
2018-03-23T18:53:32.639Z,26.62
2018-03-23T18:56:00.205Z,25.05
2018-03-23T18:58:27.675Z,29.85
2018-03-23T19:00:55.186Z,27.05
2018-03-23T19:03:22.694Z,30.77
2018-03-23T19:05:50.308Z,28.50
2018-03-23T19:08:17.825Z,27.95
2018-03-23T19:10:45.352Z,26.12
2018-03-23T19:13:13.626Z,30.02
2018-03-23T19:15:41.945Z,24.58
2018-03-23T19:18:10.192Z,27.58
2018-03-23T19:20:38.451Z,26.77
2018-03-23T19:23:05.967Z,30.05
2018-03-23T19:25:33.461Z,25.80
2018-03-23T19:28:01.052Z,24.67
2018-03-23T19:30:29.316Z,30.60
2018-03-23T19:32:57.611Z,27.37
2018-03-23T19:35:26.017Z,30.98
2018-03-23T19:37:53.514Z,26.02
2018-03-23T19:40:21.055Z,29.30
2018-03-23T19:42:48.550Z,27.20
2018-03-23T19:45:16.112Z,28.90
2018-03-23T19:47:43.581Z,30.45
2018-03-23T19:50:11.128Z,30.42
2018-03-23T19:52:38.635Z,36.38
2018-03-23T19:55:06.164Z,28.77
2018-03-23T19:57:34.477Z,31.50
2018-03-23T20:00:02.711Z,33.88
2018-03-23T20:02:31.062Z,33.47
2018-03-23T20:04:58.543Z,35.33
2018-03-23T20:07:26.831Z,32.33
2018-03-23T20:09:55.107Z,35.05
2018-03-23T20:12:23.388Z,35.70
2018-03-23T20:14:51.660Z,32.97
2018-03-23T20:20:37.294Z,33.65
2018-03-23T20:23:05.653Z,30.35
2018-03-23T20:25:33.919Z,37.47
2018-03-23T20:28:07.800Z,30.73
2018-03-23T20:30:35.311Z,34.45
2018-03-23T20:33:02.989Z,27.58
2018-03-23T20:35:30.487Z,28.90
2018-03-23T20:37:58.000Z,31.08
2018-03-23T20:40:25.495Z,28.98
2018-03-23T20:42:53.000Z,32.28
2018-03-23T20:45:20.532Z,33.78
2018-03-23T20:50:22.032Z,32.90
2018-03-23T20:52:49.532Z,30.65
2018-03-23T20:55:17.058Z,31.87
2018-03-23T20:57:44.547Z,30.20
2018-03-23T21:00:12.068Z,32.25
2018-03-23T21:02:40.348Z,33.15
2018-03-23T21:05:07.845Z,31.60
2018-03-23T21:07:35.364Z,30.85
2018-03-23T21:10:02.858Z,32.25
2018-03-23T21:12:30.379Z,37.58
2018-03-23T21:14:58.673Z,34.83
2018-03-23T21:17:26.190Z,34.92
2018-03-23T21:19:53.716Z,41.28
2018-03-23T21:22:21.240Z,45.65
2018-03-23T21:24:49.512Z,46.88
2018-03-23T21:27:17.777Z,42.10
2018-03-23T21:29:46.079Z,38.30
2018-03-23T21:32:13.577Z,46.20
2018-03-23T21:34:41.096Z,37.97
2018-03-23T21:37:08.594Z,43.63
2018-03-23T21:39:36.117Z,43.97
2018-03-23T21:42:03.694Z,40.45
2018-03-23T21:44:31.204Z,42.53
2018-03-23T21:46:58.773Z,38.90
2018-03-23T21:49:27.266Z,41.95
2018-03-23T21:51:54.836Z,38.10
2018-03-23T21:54:23.116Z,40.12
2018-03-23T21:56:50.642Z,40.00
2018-03-23T21:59:18.144Z,39.55
2018-03-23T22:01:45.662Z,43.65
2018-03-23T22:04:13.174Z,41.17
2018-03-23T22:06:40.691Z,43.28
2018-03-23T22:09:08.979Z,40.75
2018-03-23T22:11:37.235Z,40.03
2018-03-23T22:14:04.762Z,39.80
2018-03-23T22:16:32.267Z,43.55
2018-03-23T22:19:00.558Z,46.78
2018-03-23T22:21:28.822Z,48.95
2018-03-23T22:23:57.135Z,47.00
2018-03-23T22:26:24.637Z,45.70
2018-03-23T22:28:52.157Z,48.65
2018-03-23T22:31:19.656Z,42.65
2018-03-23T22:33:47.167Z,44.97
2018-03-23T22:36:14.691Z,41.58
2018-03-23T22:38:42.189Z,41.42
2018-03-23T22:41:09.724Z,39.97
2018-03-23T22:43:37.245Z,45.00
2018-03-23T22:46:04.772Z,37.53
2018-03-23T22:48:32.272Z,38.22
2018-03-23T22:50:59.816Z,40.38
2018-03-23T22:53:27.324Z,34.80
2018-03-23T22:55:55.588Z,39.92
2018-03-23T22:58:23.885Z,34.65
2018-03-23T23:00:51.385Z,39.72
2018-03-23T23:03:18.913Z,42.05
2018-03-23T23:05:46.410Z,42.88
2018-03-23T23:08:13.943Z,38.85
2018-03-23T23:10:41.439Z,40.33
2018-03-23T23:13:08.967Z,41.17
2018-03-23T23:15:36.466Z,51.72
2018-03-23T23:18:03.961Z,41.70
2018-03-23T23:20:32.239Z,43.97
2018-03-23T23:23:00.506Z,41.47
2018-03-23T23:25:28.779Z,42.22
2018-03-23T23:27:57.135Z,42.47
2018-03-23T23:30:24.665Z,40.75
2018-03-23T23:32:52.156Z,45.08
2018-03-23T23:35:19.667Z,36.33
2018-03-23T23:37:47.167Z,40.72
2018-03-23T23:40:14.663Z,42.35
2018-03-23T23:42:42.940Z,46.72
2018-03-23T23:45:11.204Z,49.13
2018-03-23T23:47:39.490Z,43.72
2018-03-23T23:50:07.750Z,48.03
2018-03-23T23:52:35.272Z,52.70
2018-03-23T23:55:02.768Z,41.40
2018-03-23T23:57:30.271Z,46.70
2018-03-23T23:59:57.759Z,42.95
